»·PEaware :: UAL382 KABQ-KDEN

UAL382 :: KABQ-KDEN

FLIGHT INFORMATION

Flight Status: Arrived
Operator:
United Airlines
More flights by this operator :: More flights under this callsign
Pilot: Patricio R. (14780)
Aircraft: AIRBUS A320
(A320)
More flights by this aircraft type
Origin: KABQ Albuquerque Intl Sunport
United States
Destination: KDEN Denver Intl
United States
More flights between these airports :: More routes between these airports
Route: +JEMEZ3 JEMEZ BRAZO PEEKK3
File this flight plan on PilotEdge
Remarks:
Altitude:
(Current/Filed)
33,000ft
Speed:
(Current/Filed)
446kts
Departed: 29-Sep-18 12:31 PM
Arrived: 29-Sep-18 01:30 PM
Distance/Time
Traveled:
303nm/0:58
Distance/Time
To Go:
Arrived

Flight Plot

Page will automatically refresh every two minutes.


Map Options




Map Legend


Flown Route
Filed Route
Departure Airport
Arrival Airport
Navaid (VOR, NDB)
Fix

Horizontal Profiles

Position Reports

Time Latitude Longitude Heading Altitude Ground
Speed
29-Sep-18 12:17 35.046926 -106.616395 12 5323ft 0kts
29-Sep-18 12:18 35.046926 -106.616395 12 5323ft 0kts
29-Sep-18 12:19 35.046926 -106.616395 12 5323ft 0kts
29-Sep-18 12:20 35.046926 -106.616395 12 5323ft 0kts
29-Sep-18 12:21 35.046926 -106.616395 12 5323ft 0kts
29-Sep-18 12:22 35.046926 -106.616395 12 5323ft 0kts
29-Sep-18 12:23 35.046926 -106.616395 12 5323ft 0kts
29-Sep-18 12:24 35.046926 -106.616395 12 5323ft 0kts
29-Sep-18 12:25 35.046926 -106.616395 12 5323ft 0kts
29-Sep-18 12:26 35.046925 -106.616396 12 5323ft 0kts
29-Sep-18 12:27 35.046869 -106.616411 12 5323ft 2kts
29-Sep-18 12:28 35.046382 -106.616322 287 5323ft 2kts
29-Sep-18 12:29 35.046370 -106.616164 269 5323ft 0kts
29-Sep-18 12:30 35.046370 -106.616182 269 5323ft 0kts
29-Sep-18 12:31 35.046376 -106.618775 270 5322ft 9kts
29-Sep-18 12:32 35.045337 -106.621343 207 5316ft 6kts
29-Sep-18 12:33 35.044296 -106.613730 90 5322ft 108kts
29-Sep-18 12:34 35.044477 -106.554134 89 6857ft 195kts
29-Sep-18 12:35 35.083721 -106.520428 328 8455ft 247kts
29-Sep-18 12:36 35.137484 -106.586728 311 10550ft 295kts
29-Sep-18 12:37 35.193938 -106.660630 311 13599ft 304kts
29-Sep-18 12:38 35.256211 -106.732052 325 16187ft 321kts
29-Sep-18 12:39 35.338296 -106.794568 326 17215ft 372kts
29-Sep-18 12:40 35.428664 -106.859858 340 19074ft 388kts
29-Sep-18 12:41 35.537227 -106.878370 350 20789ft 401kts
29-Sep-18 12:42 35.649128 -106.895608 350 22377ft 410kts
29-Sep-18 12:43 35.763011 -106.913208 350 23803ft 419kts
29-Sep-18 12:44 35.879794 -106.931304 350 25109ft 428kts
29-Sep-18 12:45 35.999230 -106.921094 12 26305ft 445kts
29-Sep-18 12:46 36.119435 -106.881974 12 27496ft 451kts
29-Sep-18 12:47 36.240728 -106.842492 12 28601ft 457kts
29-Sep-18 12:48 36.363876 -106.802265 12 29615ft 462kts
29-Sep-18 12:49 36.488472 -106.761424 12 30598ft 465kts
29-Sep-18 12:50 36.612501 -106.720648 11 31832ft 460kts
29-Sep-18 12:51 36.735595 -106.680032 11 32940ft 457kts
29-Sep-18 12:52 36.857732 -106.640795 10 33350ft 453kts
29-Sep-18 12:53 36.980378 -106.604029 10 33352ft 454kts
29-Sep-18 12:54 37.103213 -106.567083 9 33352ft 458kts
29-Sep-18 12:55 37.226468 -106.529884 9 33358ft 461kts
29-Sep-18 12:56 37.335753 -106.496802 9 33362ft 461kts
29-Sep-18 12:57 37.460082 -106.459048 9 33344ft 461kts
29-Sep-18 12:58 37.584453 -106.421149 9 33317ft 460kts
29-Sep-18 12:59 37.708381 -106.383256 9 33296ft 460kts
29-Sep-18 13:00 37.832121 -106.345290 10 33278ft 459kts
29-Sep-18 13:01 37.955451 -106.307312 10 33273ft 459kts
29-Sep-18 13:02 38.078570 -106.266400 17 33301ft 463kts
29-Sep-18 13:03 38.196485 -106.200788 20 33316ft 465kts
29-Sep-18 13:04 38.314217 -106.134604 20 33315ft 465kts
29-Sep-18 13:05 38.432278 -106.067969 20 33315ft 465kts
29-Sep-18 13:06 38.549991 -106.001285 20 33317ft 465kts
29-Sep-18 13:07 38.667542 -105.934438 20 33080ft 457kts
29-Sep-18 13:08 38.780384 -105.870064 20 31991ft 434kts
29-Sep-18 13:09 38.880262 -105.787667 42 30037ft 434kts
29-Sep-18 13:10 38.964859 -105.679818 41 28134ft 425kts
29-Sep-18 13:11 39.047517 -105.574269 41 26236ft 417kts
29-Sep-18 13:12 39.128608 -105.470341 41 24307ft 409kts
29-Sep-18 13:13 39.208110 -105.368462 41 22380ft 402kts
29-Sep-18 13:14 39.284611 -105.270629 41 21599ft 372kts
29-Sep-18 13:15 39.370781 -105.190966 30 20253ft 394kts
29-Sep-18 13:16 39.455415 -105.111388 33 19180ft 364kts
29-Sep-18 13:17 39.534385 -105.034134 34 17595ft 354kts
29-Sep-18 13:18 39.598785 -104.970648 34 16287ft 346kts
29-Sep-18 13:19 39.686534 -104.883976 35 14503ft 334kts
29-Sep-18 13:20 39.752588 -104.840785 358 13193ft 319kts
29-Sep-18 13:21 39.839931 -104.839959 358 11731ft 310kts
29-Sep-18 13:22 39.920864 -104.839077 358 11143ft 274kts
29-Sep-18 13:23 40.007343 -104.839929 357 11030ft 261kts
29-Sep-18 13:24 40.067575 -104.840275 358 10944ft 258kts
29-Sep-18 13:25 40.125376 -104.803497 81 9970ft 250kts
29-Sep-18 13:26 40.106913 -104.729677 148 9219ft 222kts
29-Sep-18 13:27 40.057607 -104.688398 157 8161ft 202kts
29-Sep-18 13:28 40.006255 -104.685566 182 7595ft 180kts
29-Sep-18 13:29 39.957311 -104.686086 182 6638ft 162kts
29-Sep-18 13:30 39.914868 -104.686546 181 5802ft 152kts
29-Sep-18 13:31 39.879240 -104.686989 179 5443ft 57kts
29-Sep-18 13:32 39.871967 -104.685530 149 5443ft 6kts
29-Sep-18 13:33 39.868385 -104.684986 180 5443ft 14kts
29-Sep-18 13:34 39.864017 -104.685039 180 5443ft 16kts
29-Sep-18 13:35 39.860297 -104.684085 89 5443ft 12kts
29-Sep-18 13:36 39.860358 -104.679427 137 5443ft 10kts

Navigation Log

Ident Type
Flight plan parsing failed, navigation log unavailable